createdAt,value
2022-08-17T00:00:05.800Z,11.85
2022-08-17T00:02:32.910Z,11.85
2022-08-17T00:05:08.354Z,11.75
2022-08-17T00:07:35.326Z,12.57
2022-08-17T00:10:02.362Z,10.35
2022-08-17T00:12:42.907Z,11.30
2022-08-17T00:15:11.164Z,11.25
2022-08-17T00:17:38.241Z,11.63
2022-08-17T00:20:05.969Z,10.90
2022-08-17T00:22:36.319Z,11.70
2022-08-17T00:25:05.473Z,11.02
2022-08-17T00:27:32.584Z,11.35
2022-08-17T00:29:59.562Z,10.30
2022-08-17T00:33:15.571Z,11.20
2022-08-17T00:35:16.255Z,11.32
2022-08-17T00:40:11.846Z,10.50
2022-08-17T00:42:39.182Z,11.68
2022-08-17T00:45:07.488Z,11.15
2022-08-17T00:47:34.423Z,11.60
2022-08-17T00:50:01.404Z,10.52
2022-08-17T00:52:33.145Z,10.98
2022-08-17T00:55:00.222Z,11.32
2022-08-17T00:57:31.302Z,10.98
2022-08-17T01:00:07.373Z,11.57
2022-08-17T01:02:50.887Z,10.48
2022-08-17T01:05:23.861Z,11.15
2022-08-17T01:07:52.571Z,10.85
2022-08-17T01:10:58.730Z,11.38
2022-08-17T01:13:13.618Z,11.32
2022-08-17T01:15:46.240Z,10.88
2022-08-17T01:18:14.408Z,11.80
2022-08-17T01:20:48.250Z,10.60
2022-08-17T01:23:20.646Z,9.98
2022-08-17T01:26:12.153Z,10.52
2022-08-17T01:28:54.709Z,11.02
2022-08-17T01:31:24.475Z,11.02
2022-08-17T01:33:51.550Z,10.20
2022-08-17T01:36:18.609Z,11.07
2022-08-17T01:38:46.505Z,10.73
2022-08-17T01:41:17.659Z,10.15
2022-08-17T01:44:03.830Z,10.65
2022-08-17T01:46:35.754Z,9.48
2022-08-17T01:49:07.190Z,10.32
2022-08-17T01:51:34.303Z,10.77
2022-08-17T01:54:03.322Z,10.35
2022-08-17T01:58:57.395Z,10.70
2022-08-17T02:01:28.823Z,10.50
2022-08-17T02:04:00.396Z,10.23
2022-08-17T02:06:47.051Z,11.18
2022-08-17T02:09:25.542Z,11.30
2022-08-17T02:11:55.207Z,10.65
2022-08-17T02:14:26.871Z,10.32
2022-08-17T02:16:58.743Z,10.25
2022-08-17T02:22:30.044Z,10.60
2022-08-17T02:25:02.831Z,10.55
2022-08-17T02:27:31.731Z,10.07
2022-08-17T02:30:02.911Z,10.60
2022-08-17T02:32:33.381Z,10.88
2022-08-17T02:35:04.775Z,10.48
2022-08-17T02:37:43.879Z,9.90
2022-08-17T02:43:28.681Z,10.20
2022-08-17T02:45:58.523Z,11.18
2022-08-17T02:48:31.247Z,9.63
2022-08-17T02:51:01.598Z,10.63
2022-08-17T02:53:36.038Z,10.38
2022-08-17T02:56:06.080Z,10.27
2022-08-17T03:01:49.866Z,10.55
2022-08-17T03:04:29.498Z,10.45
2022-08-17T03:06:58.519Z,9.82
2022-08-17T03:12:06.365Z,9.95
2022-08-17T03:18:05.516Z,10.38
2022-08-17T03:20:41.817Z,10.80
2022-08-17T03:26:29.790Z,11.35
2022-08-17T03:29:00.077Z,9.48
2022-08-17T03:31:29.311Z,9.55
2022-08-17T03:33:58.727Z,8.77
2022-08-17T03:38:55.685Z,9.68
2022-08-17T03:41:31.549Z,8.98
2022-08-17T03:44:08.222Z,9.95
2022-08-17T03:50:01.965Z,10.02
2022-08-17T03:56:36.656Z,9.48
2022-08-17T03:59:25.837Z,9.30
2022-08-17T04:02:12.635Z,9.90
2022-08-17T04:18:15.705Z,8.73
2022-08-17T04:20:47.068Z,8.73
2022-08-17T04:23:52.398Z,9.05
2022-08-17T04:30:15.929Z,8.90
2022-08-17T04:33:17.966Z,9.27
2022-08-17T04:36:03.280Z,9.35
2022-08-17T04:39:04.466Z,9.70
2022-08-17T04:42:09.768Z,9.05
2022-08-17T04:47:39.026Z,8.90
2022-08-17T04:50:20.590Z,9.30
2022-08-17T04:52:57.376Z,8.65
2022-08-17T04:59:08.485Z,8.05
2022-08-17T05:02:03.539Z,8.35
2022-08-17T05:04:42.182Z,8.85
2022-08-17T05:07:11.906Z,8.55
2022-08-17T05:09:40.855Z,7.85
2022-08-17T05:28:43.455Z,7.47
2022-08-17T05:31:23.150Z,7.72
2022-08-17T05:34:02.177Z,7.32
2022-08-17T05:39:15.908Z,7.03
2022-08-17T05:41:44.174Z,7.88
2022-08-17T05:51:28.815Z,7.60
2022-08-17T05:54:24.407Z,7.75
2022-08-17T06:00:42.000Z,7.57
2022-08-17T06:03:15.164Z,7.45
2022-08-17T06:06:14.831Z,6.82
2022-08-17T06:09:00.677Z,7.38
2022-08-17T06:11:53.514Z,7.28
2022-08-17T06:14:33.113Z,7.25
2022-08-17T06:17:05.234Z,7.22
2022-08-17T06:19:37.493Z,8.05
2022-08-17T06:22:06.026Z,7.75
2022-08-17T06:24:56.848Z,7.40
2022-08-17T06:27:39.165Z,7.45
2022-08-17T06:30:16.093Z,6.78
2022-08-17T06:32:44.181Z,6.53
2022-08-17T06:35:31.808Z,7.03
2022-08-17T06:38:08.888Z,6.80
2022-08-17T06:41:05.982Z,6.97
2022-08-17T06:44:03.350Z,7.07
2022-08-17T06:46:41.017Z,7.07
2022-08-17T06:49:11.909Z,8.05
2022-08-17T06:51:44.627Z,7.43
2022-08-17T06:54:20.840Z,7.65
2022-08-17T06:56:57.596Z,7.20
2022-08-17T06:59:30.469Z,7.18
2022-08-17T07:03:02.634Z,11.77
2022-08-17T07:05:46.473Z,17.33
2022-08-17T07:08:38.648Z,22.88
2022-08-17T07:11:13.235Z,7.50
2022-08-17T07:13:49.263Z,6.93
2022-08-17T07:16:41.461Z,6.60
2022-08-17T07:19:10.777Z,6.82
2022-08-17T07:21:45.135Z,8.25
2022-08-17T07:24:30.728Z,7.95
2022-08-17T07:27:06.730Z,7.00
2022-08-17T07:29:39.513Z,7.90
2022-08-17T07:32:06.670Z,6.88
2022-08-17T07:34:58.051Z,7.85
2022-08-17T07:37:25.100Z,6.95
2022-08-17T07:40:15.261Z,7.93
2022-08-17T07:42:44.528Z,7.40
2022-08-17T07:45:33.687Z,7.72
2022-08-17T07:48:19.024Z,27.23
2022-08-17T07:50:50.758Z,7.22
2022-08-17T07:53:23.407Z,7.38
2022-08-17T07:55:51.298Z,7.65
2022-08-17T07:58:20.628Z,7.70
2022-08-17T08:01:02.218Z,8.70
2022-08-17T08:03:32.114Z,6.95
2022-08-17T08:06:07.527Z,7.43
2022-08-17T08:08:42.566Z,6.75
2022-08-17T08:14:33.739Z,6.35
2022-08-17T08:17:04.478Z,6.43
2022-08-17T08:19:33.489Z,6.40
2022-08-17T08:22:36.178Z,5.90
2022-08-17T08:25:14.491Z,5.78
2022-08-17T08:28:01.845Z,6.83
2022-08-17T08:30:30.075Z,6.70
2022-08-17T08:33:29.081Z,12.82
2022-08-17T08:36:57.064Z,7.10
2022-08-17T08:39:50.751Z,7.15
2022-08-17T08:42:25.796Z,6.60
2022-08-17T08:45:55.603Z,6.78
2022-08-17T08:48:55.717Z,6.30
2022-08-17T08:51:37.605Z,6.82
2022-08-17T08:54:31.611Z,6.40
2022-08-17T09:00:14.930Z,5.85
2022-08-17T09:03:20.281Z,6.05
2022-08-17T09:06:33.270Z,5.40
2022-08-17T09:16:12.996Z,6.43
2022-08-17T09:19:00.150Z,5.90
2022-08-17T09:21:48.760Z,6.82
2022-08-17T09:24:26.783Z,5.40
2022-08-17T09:27:21.138Z,6.03
2022-08-17T09:29:54.216Z,6.05
2022-08-17T09:32:31.894Z,5.55
2022-08-17T09:35:06.126Z,5.70
2022-08-17T09:37:50.422Z,5.95
2022-08-17T09:40:39.096Z,6.63
2022-08-17T09:43:22.873Z,6.05
2022-08-17T09:45:52.723Z,6.25
2022-08-17T09:48:19.763Z,5.97
2022-08-17T09:51:06.546Z,5.82
2022-08-17T09:53:37.258Z,5.82
2022-08-17T09:56:28.874Z,6.50
2022-08-17T09:59:08.192Z,6.60
2022-08-17T10:01:40.652Z,6.45
2022-08-17T10:04:29.512Z,6.88
2022-08-17T10:07:27.528Z,6.55
2022-08-17T10:10:00.890Z,6.40
2022-08-17T10:12:46.407Z,6.18
2022-08-17T10:15:22.954Z,5.60
2022-08-17T10:18:13.667Z,6.03
2022-08-17T10:20:46.567Z,6.70
2022-08-17T10:23:36.794Z,7.20
2022-08-17T10:26:14.763Z,6.22
2022-08-17T10:28:54.102Z,7.00
2022-08-17T10:31:35.205Z,6.50
2022-08-17T10:34:03.019Z,6.70
2022-08-17T10:44:40.516Z,6.95
2022-08-17T10:47:11.657Z,6.90
2022-08-17T10:49:40.757Z,7.13
2022-08-17T10:52:27.931Z,6.45
2022-08-17T10:54:58.183Z,7.05
2022-08-17T10:57:34.946Z,7.15
2022-08-17T11:00:09.725Z,6.82
2022-08-17T11:02:49.908Z,7.00
2022-08-17T11:05:40.104Z,6.68
2022-08-17T11:08:45.113Z,7.00
2022-08-17T11:11:36.587Z,7.45
2022-08-17T11:14:48.480Z,7.00
2022-08-17T11:17:41.619Z,8.15
2022-08-17T11:20:20.518Z,6.85
2022-08-17T11:23:23.210Z,8.07
2022-08-17T11:25:58.207Z,7.20
2022-08-17T11:28:26.872Z,6.32
2022-08-17T11:31:23.975Z,7.20
2022-08-17T11:34:20.529Z,6.90
2022-08-17T11:37:23.304Z,6.57
2022-08-17T11:40:15.322Z,6.55
2022-08-17T11:43:39.511Z,6.85
2022-08-17T11:46:12.512Z,6.15
2022-08-17T12:26:36.870Z,5.75
2022-08-17T12:29:18.015Z,6.28
2022-08-17T12:31:59.628Z,5.80
2022-08-17T12:34:29.003Z,5.30
2022-08-17T12:37:00.216Z,5.15
2022-08-17T12:39:27.627Z,4.95
2022-08-17T12:42:02.693Z,5.72
2022-08-17T12:44:36.184Z,5.78
2022-08-17T12:47:22.674Z,5.30
2022-08-17T12:53:20.178Z,5.90
2022-08-17T12:55:47.837Z,5.53
2022-08-17T13:05:36.287Z,5.32
2022-08-17T13:08:21.160Z,5.28
2022-08-17T13:13:50.918Z,5.20
2022-08-17T13:16:23.211Z,5.25
2022-08-17T13:18:55.113Z,5.45
2022-08-17T13:21:27.073Z,6.43
2022-08-17T13:24:01.457Z,6.22
2022-08-17T13:26:37.558Z,6.45
2022-08-17T13:29:24.107Z,7.22
2022-08-17T13:42:51.448Z,7.18
2022-08-17T13:48:21.912Z,7.53
2022-08-17T13:50:54.999Z,6.97
2022-08-17T13:53:33.241Z,7.40
2022-08-17T13:56:37.606Z,7.32
2022-08-17T13:59:01.260Z,7.15
2022-08-17T14:01:53.386Z,7.03
2022-08-17T14:04:25.719Z,8.02
2022-08-17T14:07:10.695Z,7.03
2022-08-17T14:09:43.883Z,7.70
2022-08-17T14:12:12.617Z,6.97
2022-08-17T14:14:39.714Z,7.10
2022-08-17T14:17:08.179Z,7.35
2022-08-17T14:19:36.378Z,8.18
2022-08-17T14:27:22.501Z,7.25
2022-08-17T14:29:49.559Z,6.50
2022-08-17T14:47:37.283Z,7.15
2022-08-17T14:50:06.347Z,7.70
2022-08-17T14:52:36.058Z,7.88
2022-08-17T14:55:04.088Z,7.72
2022-08-17T15:03:47.220Z,7.90
2022-08-17T15:06:16.341Z,8.55
2022-08-17T15:08:43.670Z,6.90
2022-08-17T15:11:14.338Z,7.82
2022-08-17T15:13:52.958Z,7.68
2022-08-17T15:16:20.662Z,7.53
2022-08-17T15:18:48.447Z,7.75
2022-08-17T15:21:16.046Z,8.02
2022-08-17T15:23:43.102Z,7.17
2022-08-17T15:26:11.148Z,8.23
2022-08-17T15:28:38.134Z,7.45
2022-08-17T15:31:06.779Z,8.20
2022-08-17T15:33:34.181Z,8.40
2022-08-17T15:36:03.092Z,8.43
2022-08-17T15:38:30.892Z,8.10
2022-08-17T15:40:58.668Z,8.40
2022-08-17T15:43:28.307Z,8.57
2022-08-17T15:46:00.912Z,7.90
2022-08-17T15:48:41.567Z,8.23
2022-08-17T15:51:19.606Z,8.10
2022-08-17T15:53:48.824Z,9.60
2022-08-17T15:56:16.423Z,8.25
2022-08-17T15:58:43.976Z,8.98
2022-08-17T16:01:16.751Z,9.23
2022-08-17T16:04:04.502Z,8.65
2022-08-17T16:06:33.596Z,7.97
2022-08-17T16:09:00.787Z,8.73
2022-08-17T16:11:27.783Z,9.25
2022-08-17T16:13:56.171Z,9.30
2022-08-17T16:16:23.884Z,8.55
2022-08-17T16:18:53.564Z,9.57
2022-08-17T16:21:27.222Z,9.07
2022-08-17T16:24:05.810Z,9.52
2022-08-17T16:26:40.577Z,9.70
2022-08-17T16:29:07.660Z,9.38
2022-08-17T16:31:36.202Z,9.50
2022-08-17T16:41:48.076Z,9.60
2022-08-17T16:44:16.729Z,9.73
2022-08-17T16:46:45.410Z,8.70
2022-08-17T16:49:27.627Z,9.23
2022-08-17T16:52:03.154Z,8.70
2022-08-17T16:54:30.510Z,8.73
2022-08-17T16:56:57.740Z,8.80
2022-08-17T16:59:30.806Z,9.20
2022-08-17T17:28:08.881Z,10.70
2022-08-17T17:30:49.396Z,11.82
2022-08-17T17:48:42.342Z,12.40
2022-08-17T17:52:06.281Z,13.05
2022-08-17T17:54:34.211Z,11.40
2022-08-17T18:27:02.411Z,10.15
2022-08-17T18:29:43.144Z,11.02
2022-08-17T18:32:23.950Z,10.73
2022-08-17T18:35:10.614Z,12.77
2022-08-17T18:37:47.705Z,9.98
2022-08-17T18:40:20.674Z,10.15
2022-08-17T18:43:04.762Z,10.32
2022-08-17T18:45:52.178Z,9.45
2022-08-17T18:48:25.663Z,10.05
2022-08-17T18:50:54.468Z,9.52
2022-08-17T18:53:33.182Z,10.05
2022-08-17T18:56:32.441Z,11.10
2022-08-17T19:18:15.100Z,9.20
2022-08-17T19:25:03.743Z,9.63
2022-08-17T19:28:03.157Z,9.77
2022-08-17T19:30:30.695Z,9.77
2022-08-17T19:32:58.579Z,9.55
2022-08-17T19:35:30.827Z,9.95
2022-08-17T19:38:00.710Z,9.52
2022-08-17T19:40:54.805Z,9.68
2022-08-17T19:43:48.142Z,9.63
2022-08-17T19:46:26.330Z,9.57
2022-08-17T19:48:57.232Z,9.70
2022-08-17T19:51:41.093Z,10.35
2022-08-17T19:54:24.038Z,9.50
2022-08-17T19:57:09.072Z,9.57
2022-08-17T19:59:59.835Z,9.73
2022-08-17T20:02:33.310Z,9.15
2022-08-17T20:05:03.591Z,9.55
2022-08-17T20:07:44.751Z,9.98
2022-08-17T20:10:19.714Z,9.88
2022-08-17T20:12:46.951Z,9.73
2022-08-17T20:15:22.512Z,10.13
2022-08-17T20:17:49.676Z,10.20
2022-08-17T20:20:38.563Z,8.65
2022-08-17T20:23:19.961Z,8.82
2022-08-17T20:26:04.025Z,9.73
2022-08-17T20:28:35.282Z,9.40
2022-08-17T20:31:02.802Z,9.13
2022-08-17T20:33:34.415Z,9.20
2022-08-17T20:36:19.336Z,8.77
2022-08-17T20:38:57.006Z,9.05
2022-08-17T20:41:25.887Z,9.90
2022-08-17T20:43:59.251Z,9.52
2022-08-17T20:46:38.729Z,10.80
2022-08-17T20:49:09.083Z,8.70
2022-08-17T20:52:01.942Z,9.23
2022-08-17T20:54:36.991Z,9.20
2022-08-17T20:57:06.769Z,8.73
2022-08-17T20:59:45.046Z,9.20
2022-08-17T21:02:18.457Z,9.32
2022-08-17T21:04:54.804Z,9.48
2022-08-17T21:07:43.682Z,9.48
2022-08-17T21:10:11.088Z,9.50
2022-08-17T21:12:43.005Z,9.57
2022-08-17T21:15:31.835Z,10.07
2022-08-17T21:21:18.182Z,8.65
2022-08-17T21:23:57.428Z,9.52
2022-08-17T21:26:55.694Z,10.25
2022-08-17T21:29:31.889Z,9.45
2022-08-17T21:32:06.318Z,9.30
2022-08-17T23:40:47.261Z,9.18
2022-08-17T23:43:17.570Z,9.63
